Time;durP1;ratioP1;P1;durP2;ratioP2;P2;SDS_P1;SDS_P2;PMS_P1;PMS_P2;Temp;Humidity;BMP_temperature;BMP_pressure;BME280_temperature;BME280_humidity;BME280_pressure;Samples;Min_cycle;Max_cycle;Signal;HPM_P1;HPM_P2
2021/12/13 00:00:00;;;;;;;2.90;2.30;;;2.70;99.90;;;;;;5137170;27;20416;-80
2021/12/13 00:02:47;;;;;;;3.77;2.30;;;2.70;99.90;;;;;;5138081;27;20408;-80
2021/12/13 00:05:23;;;;;;;2.77;2.13;;;2.70;99.90;;;;;;5137389;27;20444;-80
2021/12/13 00:07:57;;;;;;;2.70;2.00;;;2.80;99.90;;;;;;5136406;27;20415;-80
2021/12/13 00:10:32;;;;;;;2.77;2.20;;;2.60;99.90;;;;;;5136585;28;20415;-80
2021/12/13 00:13:08;;;;;;;3.50;2.70;;;2.80;99.90;;;;;;5135411;28;20396;-80
2021/12/13 00:15:42;;;;;;;4.80;2.60;;;2.70;99.90;;;;;;5134667;28;20507;-79
2021/12/13 00:18:16;;;;;;;2.77;2.33;;;2.70;99.90;;;;;;5134760;28;20435;-80
2021/12/13 00:20:49;;;;;;;2.73;2.43;;;2.70;99.90;;;;;;5135968;28;20464;-80
2021/12/13 00:23:22;;;;;;;3.57;2.40;;;2.70;99.90;;;;;;5143690;27;20569;-80
2021/12/13 00:25:51;;;;;;;2.60;1.97;;;2.70;99.90;;;;;;5137412;28;20496;-80
2021/12/13 00:28:19;;;;;;;6.70;2.60;;;2.60;99.90;;;;;;5138596;28;20739;-80
2021/12/13 00:31:12;;;;;;;4.60;2.97;;;2.50;99.90;;;;;;5138727;28;20436;-80
2021/12/13 00:34:03;;;;;;;2.93;2.27;;;2.50;99.90;;;;;;5137480;28;20434;-80
2021/12/13 00:36:38;;;;;;;2.40;2.10;;;2.50;99.90;;;;;;5139223;27;20884;-80
2021/12/13 00:39:22;;;;;;;2.37;2.07;;;2.40;99.90;;;;;;5139236;27;20400;-80
2021/12/13 00:41:50;;;;;;;2.00;1.80;;;2.50;99.90;;;;;;5138177;28;20410;-80
2021/12/13 00:44:22;;;;;;;2.30;2.07;;;2.50;99.90;;;;;;5139669;28;20449;-80
2021/12/13 00:46:52;;;;;;;2.70;2.03;;;2.50;99.90;;;;;;5138867;27;20462;-80
2021/12/13 00:49:21;;;;;;;2.43;2.23;;;2.50;99.90;;;;;;5141179;27;20408;-80
2021/12/13 00:51:50;;;;;;;2.40;2.20;;;2.50;99.90;;;;;;5141399;27;20423;-80
2021/12/13 00:54:29;;;;;;;2.30;2.03;;;2.40;99.90;;;;;;5142697;27;20933;-80
2021/12/13 00:57:12;;;;;;;2.10;1.70;;;2.40;99.90;;;;;;5142822;27;20440;-79
2021/12/13 00:59:54;;;;;;;2.20;2.00;;;2.30;99.90;;;;;;5141262;27;20821;-80
2021/12/13 01:02:27;;;;;;;1.93;1.73;;;2.30;99.90;;;;;;5141137;27;20504;-80
2021/12/13 01:05:04;;;;;;;2.47;2.00;;;2.40;99.90;;;;;;5141292;27;20443;-80
2021/12/13 01:07:33;;;;;;;1.80;1.70;;;2.30;99.90;;;;;;5142666;27;20522;-80
2021/12/13 01:10:17;;;;;;;2.07;1.87;;;2.20;99.90;;;;;;5141505;27;20408;-80
2021/12/13 01:12:49;;;;;;;4.27;1.80;;;2.20;99.90;;;;;;5142932;27;20389;-80
2021/12/13 01:15:34;;;;;;;1.87;1.67;;;2.20;99.90;;;;;;5143426;27;20439;-80
2021/12/13 01:18:57;;;;;;;1.47;1.33;;;2.20;99.90;;;;;;5142820;27;20409;-80
2021/12/13 01:21:27;;;;;;;1.97;1.87;;;2.20;99.90;;;;;;5142857;27;20416;-80
2021/12/13 01:24:04;;;;;;;1.43;1.33;;;2.20;99.90;;;;;;5144645;27;20412;-80
2021/12/13 01:26:42;;;;;;;1.83;1.73;;;2.20;99.90;;;;;;5144051;27;20459;-79
2021/12/13 01:29:23;;;;;;;2.20;2.03;;;2.20;99.90;;;;;;5140899;27;20404;-80
2021/12/13 01:31:53;;;;;;;1.57;1.47;;;2.20;99.90;;;;;;5141814;27;20393;-80
2021/12/13 01:34:22;;;;;;;2.30;1.87;;;2.20;99.90;;;;;;5140598;27;20429;-80
2021/12/13 01:37:02;;;;;;;1.60;1.50;;;2.30;99.90;;;;;;5141671;27;20411;-80
2021/12/13 01:39:30;;;;;;;1.70;1.60;;;2.30;99.90;;;;;;5142169;27;20415;-80
2021/12/13 01:42:00;;;;;;;2.23;1.80;;;2.10;99.90;;;;;;5141286;27;20414;-79
2021/12/13 01:44:40;;;;;;;2.43;1.57;;;2.30;99.90;;;;;;5141875;27;20417;-80
2021/12/13 01:47:14;;;;;;;1.83;1.40;;;2.30;99.90;;;;;;5142084;27;20451;-80
2021/12/13 01:49:46;;;;;;;2.43;2.00;;;2.30;99.90;;;;;;5141771;27;20389;-80
2021/12/13 01:52:26;;;;;;;1.77;1.57;;;2.30;99.90;;;;;;5141213;27;20385;-79
2021/12/13 01:54:56;;;;;;;2.10;1.90;;;2.30;99.90;;;;;;5140380;27;20435;-80
2021/12/13 01:57:27;;;;;;;1.70;1.60;;;2.30;99.90;;;;;;5140054;27;20419;-80
2021/12/13 02:00:43;;;;;;;2.20;1.73;;;2.40;99.90;;;;;;5141310;27;20951;-80
2021/12/13 02:03:10;;;;;;;1.70;1.60;;;2.30;99.90;;;;;;5140378;27;20420;-80
2021/12/13 02:05:36;;;;;;;1.50;1.40;;;2.30;99.90;;;;;;5141367;27;20967;-80
2021/12/13 02:08:11;;;;;;;2.00;1.77;;;2.20;99.90;;;;;;5139714;27;20412;-80
2021/12/13 02:10:46;;;;;;;2.00;1.90;;;2.30;99.90;;;;;;5140651;27;20250;-80
2021/12/13 02:13:33;;;;;;;1.90;1.73;;;2.30;99.90;;;;;;5141736;27;20400;-80
2021/12/13 02:18:52;;;;;;;3.17;1.80;;;2.30;99.90;;;;;;5140824;27;20398;-80
2021/12/13 02:21:28;;;;;;;2.40;1.87;;;2.30;99.90;;;;;;5139505;27;20462;-80
2021/12/13 02:23:59;;;;;;;1.67;1.57;;;2.30;99.90;;;;;;5139245;27;20415;-80
2021/12/13 02:26:27;;;;;;;1.70;1.60;;;2.30;99.90;;;;;;5140946;27;20497;-80
2021/12/13 02:29:07;;;;;;;1.87;1.67;;;2.30;99.90;;;;;;5140529;27;20420;-80
2021/12/13 02:31:37;;;;;;;1.87;1.50;;;2.30;99.90;;;;;;5142069;27;20862;-80
2021/12/13 02:34:07;;;;;;;1.80;1.60;;;2.40;99.90;;;;;;5139210;27;20416;-80
2021/12/13 02:36:47;;;;;;;1.77;1.67;;;2.30;99.90;;;;;;5139548;27;20428;-80
2021/12/13 02:39:24;;;;;;;2.47;2.17;;;2.30;99.90;;;;;;5139576;27;20412;-80
2021/12/13 02:41:50;;;;;;;1.73;1.50;;;2.40;99.90;;;;;;5140652;27;20424;-80
2021/12/13 02:44:28;;;;;;;3.10;1.73;;;2.50;99.90;;;;;;5140426;27;20489;-81
2021/12/13 02:47:02;;;;;;;2.00;1.50;;;2.50;99.90;;;;;;5141649;27;20444;-81
2021/12/13 02:49:31;;;;;;;1.50;1.40;;;2.40;99.90;;;;;;5140794;27;20428;-80
2021/12/13 02:52:05;;;;;;;1.53;1.43;;;2.50;99.90;;;;;;5140416;27;20412;-80
2021/12/13 02:54:38;;;;;;;2.20;2.00;;;2.60;99.90;;;;;;5140256;27;20425;-80
2021/12/13 02:57:11;;;;;;;1.70;1.60;;;2.60;99.90;;;;;;5139612;27;20427;-80
2021/12/13 02:59:39;;;;;;;1.93;1.73;;;2.50;99.90;;;;;;5138536;27;20945;-80
2021/12/13 03:02:16;;;;;;;1.63;1.53;;;2.50;99.90;;;;;;5139700;27;20412;-80
2021/12/13 03:04:42;;;;;;;1.90;1.53;;;2.60;99.90;;;;;;5139185;27;20428;-80
2021/12/13 03:07:14;;;;;;;2.03;1.83;;;2.50;99.90;;;;;;5137876;27;20572;-80
2021/12/13 03:09:45;;;;;;;2.60;1.70;;;2.50;99.90;;;;;;5138375;27;20561;-80
2021/12/13 03:12:15;;;;;;;2.83;1.70;;;2.40;99.90;;;;;;5135817;27;20415;-80
2021/12/13 03:14:51;;;;;;;2.30;2.10;;;2.50;99.90;;;;;;5136783;27;20439;-80
2021/12/13 03:17:40;;;;;;;2.40;1.60;;;2.50;99.90;;;;;;5136397;27;20416;-80
2021/12/13 03:20:54;;;;;;;1.43;1.33;;;2.50;99.90;;;;;;5135722;27;20745;-81
2021/12/13 03:23:22;;;;;;;3.03;2.00;;;2.50;99.90;;;;;;5090562;27;20420;-81
2021/12/13 03:26:14;;;;;;;1.63;1.53;;;2.50;99.90;;;;;;5143425;27;20528;-80
2021/12/13 03:29:11;;;;;;;2.00;1.80;;;2.40;99.90;;;;;;5128491;27;20917;-80
2021/12/13 03:31:45;;;;;;;2.87;2.00;;;2.40;99.90;;;;;;5139059;27;20424;-81
2021/12/13 03:34:16;;;;;;;2.17;1.93;;;2.30;99.90;;;;;;5139440;27;20578;-81
2021/12/13 03:36:55;;;;;;;2.20;1.87;;;2.30;99.90;;;;;;5141125;27;20425;-81
2021/12/13 03:39:29;;;;;;;2.43;1.90;;;2.30;99.90;;;;;;5141264;27;20420;-81
2021/12/13 03:41:56;;;;;;;1.93;1.83;;;2.40;99.90;;;;;;5141402;27;20514;-81
2021/12/13 03:44:41;;;;;;;2.00;1.80;;;2.40;99.90;;;;;;5142287;27;20467;-81
2021/12/13 03:47:12;;;;;;;2.70;2.10;;;2.30;99.90;;;;;;5143658;27;20455;-80
2021/12/13 03:50:00;;;;;;;1.90;1.80;;;2.10;99.90;;;;;;5139752;27;20381;-80
2021/12/13 03:52:29;;;;;;;1.53;1.43;;;2.30;99.90;;;;;;5138703;27;20429;-81
2021/12/13 03:54:59;;;;;;;2.53;2.10;;;2.30;99.90;;;;;;5138498;27;20432;-81
2021/12/13 03:57:30;;;;;;;2.50;2.27;;;2.30;99.90;;;;;;5138264;27;20905;-80
2021/12/13 03:59:59;;;;;;;2.30;1.87;;;2.30;99.90;;;;;;5140568;27;20432;-81
2021/12/13 04:02:29;;;;;;;2.57;2.37;;;2.30;99.90;;;;;;5139534;27;20404;-80
2021/12/13 04:05:00;;;;;;;3.67;2.20;;;2.30;99.90;;;;;;5138300;27;20428;-80
2021/12/13 04:07:31;;;;;;;2.90;2.53;;;2.40;99.90;;;;;;5139869;27;20444;-80
2021/12/13 04:10:00;;;;;;;3.83;2.40;;;2.30;99.90;;;;;;5138577;28;20404;-80
2021/12/13 04:12:37;;;;;;;3.60;2.33;;;2.40;99.90;;;;;;5139895;28;20401;-80
2021/12/13 04:15:51;;;;;;;2.50;1.93;;;2.40;99.90;;;;;;5139577;28;20505;-81
2021/12/13 04:21:23;;;;;;;3.57;1.93;;;2.50;99.90;;;;;;5140644;27;20400;-80
2021/12/13 04:23:55;;;;;;;2.77;2.13;;;2.60;99.90;;;;;;5147607;27;20476;-80
2021/12/13 04:26:22;;;;;;;2.03;1.83;;;2.50;99.90;;;;;;5157103;27;20485;-81
2021/12/13 04:28:51;;;;;;;2.57;1.60;;;2.50;99.90;;;;;;5156635;27;20400;-80
2021/12/13 04:31:22;;;;;;;2.03;1.93;;;2.50;99.90;;;;;;5151464;27;20913;-81
2021/12/13 04:33:55;;;;;;;2.13;1.80;;;2.40;99.90;;;;;;5142726;27;20462;-81
2021/12/13 04:36:23;;;;;;;1.73;1.30;;;2.60;99.90;;;;;;5143049;27;20939;-81
2021/12/13 04:39:05;;;;;;;1.77;1.47;;;2.60;99.90;;;;;;5143525;27;20416;-81
2021/12/13 04:41:43;;;;;;;1.70;1.57;;;2.70;99.90;;;;;;5149034;27;20408;-79
2021/12/13 04:44:29;;;;;;;1.60;1.50;;;2.70;99.90;;;;;;5145101;27;20440;-81
2021/12/13 04:46:56;;;;;;;2.40;1.60;;;2.70;99.90;;;;;;5144110;27;20459;-81
2021/12/13 04:49:25;;;;;;;2.87;1.53;;;2.70;99.90;;;;;;5144472;27;20838;-81
2021/12/13 04:51:54;;;;;;;3.47;2.23;;;2.70;99.90;;;;;;5141891;27;20408;-81
2021/12/13 04:54:21;;;;;;;1.93;1.50;;;2.70;99.90;;;;;;5142487;27;20432;-81
2021/12/13 04:56:48;;;;;;;1.70;1.60;;;2.90;99.90;;;;;;5143216;27;20573;-81
2021/12/13 04:59:16;;;;;;;5.00;2.40;;;2.80;99.90;;;;;;5143066;27;20456;-81
2021/12/13 05:01:53;;;;;;;2.20;1.80;;;2.80;99.90;;;;;;5142765;27;20927;-81
2021/12/13 05:04:21;;;;;;;5.33;2.60;;;2.80;99.90;;;;;;5143863;27;20428;-80
2021/12/13 05:06:48;;;;;;;4.77;2.83;;;2.90;99.90;;;;;;5142808;27;20460;-80
2021/12/13 05:09:17;;;;;;;4.33;2.70;;;2.90;99.90;;;;;;5142196;27;20860;-81
2021/12/13 05:12:09;;;;;;;3.13;2.63;;;2.80;99.90;;;;;;5142767;27;20778;-81
2021/12/13 05:14:47;;;;;;;2.37;2.17;;;2.80;99.90;;;;;;5141825;27;20515;-81
2021/12/13 05:17:18;;;;;;;3.60;2.57;;;2.70;99.90;;;;;;5143172;27;20465;-80
2021/12/13 05:19:51;;;;;;;2.23;2.07;;;2.70;99.90;;;;;;5143513;27;20897;-81
2021/12/13 05:22:19;;;;;;;2.30;2.10;;;2.60;99.90;;;;;;5142223;27;20412;-81
2021/12/13 05:24:54;;;;;;;4.40;2.70;;;2.60;99.90;;;;;;5141781;27;20436;-81
2021/12/13 05:27:31;;;;;;;4.17;3.47;;;2.50;99.90;;;;;;5143623;27;20443;-81
2021/12/13 05:30:09;;;;;;;3.60;2.73;;;2.50;99.90;;;;;;5143021;27;20487;-81
2021/12/13 05:32:38;;;;;;;3.57;2.73;;;2.50;99.90;;;;;;5141605;27;20412;-81
2021/12/13 05:35:19;;;;;;;3.70;3.03;;;2.40;99.90;;;;;;5140839;27;20428;-81
2021/12/13 05:37:50;;;;;;;3.73;2.90;;;2.50;99.90;;;;;;5141988;27;20412;-81
2021/12/13 05:40:23;;;;;;;5.23;2.30;;;2.60;99.90;;;;;;5141971;27;20413;-81
2021/12/13 05:42:58;;;;;;;3.87;2.40;;;2.50;99.90;;;;;;5143632;27;20388;-81
2021/12/13 05:45:39;;;;;;;2.90;2.60;;;2.60;99.90;;;;;;5141958;27;20435;-81
2021/12/13 05:48:05;;;;;;;2.90;2.60;;;2.60;99.90;;;;;;5144092;27;20393;-81
2021/12/13 05:50:35;;;;;;;2.97;2.27;;;2.60;99.90;;;;;;5141734;27;20419;-82
2021/12/13 05:53:06;;;;;;;4.53;2.33;;;2.60;99.90;;;;;;5143316;27;20567;-81
2021/12/13 05:55:48;;;;;;;3.90;2.33;;;2.60;99.90;;;;;;5142404;27;21083;-82
2021/12/13 05:58:31;;;;;;;2.87;2.60;;;2.50;99.90;;;;;;5144197;27;20849;-81
2021/12/13 06:00:59;;;;;;;3.17;2.50;;;2.50;99.90;;;;;;5146101;27;20389;-80
2021/12/13 06:03:34;;;;;;;2.40;2.00;;;2.50;99.90;;;;;;5148291;27;20776;-81
2021/12/13 06:06:13;;;;;;;2.60;2.40;;;2.50;99.90;;;;;;5147647;27;20834;-80
2021/12/13 06:08:46;;;;;;;2.73;2.10;;;2.50;99.90;;;;;;5142974;27;20411;-80
2021/12/13 06:11:32;;;;;;;2.30;2.10;;;2.50;99.90;;;;;;5143977;27;20411;-80
2021/12/13 06:14:19;;;;;;;4.40;2.67;;;2.50;99.90;;;;;;5143399;27;20447;-80
2021/12/13 06:17:16;;;;;;;3.23;2.70;;;2.50;99.90;;;;;;5144192;27;20417;-80
2021/12/13 06:19:54;;;;;;;3.77;2.67;;;2.50;99.90;;;;;;5145709;27;20416;-80
2021/12/13 06:22:22;;;;;;;4.90;3.23;;;2.50;99.90;;;;;;5145457;27;20411;-80
2021/12/13 06:24:51;;;;;;;4.97;4.37;;;2.70;99.90;;;;;;5137398;27;20441;-80
2021/12/13 06:27:23;;;;;;;5.07;3.80;;;2.60;99.90;;;;;;5142400;27;20435;-79
2021/12/13 06:29:59;;;;;;;4.50;3.53;;;2.50;99.90;;;;;;5143693;27;20407;-80
2021/12/13 06:32:28;;;;;;;5.57;3.47;;;2.50;99.90;;;;;;5141665;27;20407;-80
2021/12/13 06:34:54;;;;;;;3.90;3.10;;;2.50;99.90;;;;;;5141197;27;20438;-80
2021/12/13 06:37:35;;;;;;;3.97;2.67;;;2.40;99.90;;;;;;5142314;27;20810;-80
2021/12/13 06:40:27;;;;;;;6.57;3.47;;;2.40;99.90;;;;;;5141370;27;20424;-80
2021/12/13 06:43:01;;;;;;;3.83;3.53;;;2.30;99.90;;;;;;5143667;27;20923;-80
2021/12/13 06:45:35;;;;;;;3.70;3.07;;;2.40;99.90;;;;;;5141320;27;20528;-80
2021/12/13 06:48:05;;;;;;;3.33;2.43;;;2.40;99.90;;;;;;5143418;27;20764;-80
2021/12/13 06:50:37;;;;;;;6.13;3.33;;;2.50;99.90;;;;;;5142166;27;20405;-80
2021/12/13 06:53:17;;;;;;;6.63;3.53;;;2.50;99.90;;;;;;5142227;27;20404;-80
2021/12/13 06:55:44;;;;;;;6.43;3.50;;;2.50;99.90;;;;;;5142153;27;20422;-80
2021/12/13 06:58:20;;;;;;;9.57;7.37;;;2.50;99.90;;;;;;5142397;27;20396;-80
2021/12/13 07:00:48;;;;;;;9.03;4.20;;;2.50;99.90;;;;;;5140882;27;20403;-80
2021/12/13 07:03:27;;;;;;;4.93;3.80;;;2.60;99.90;;;;;;5140431;27;20416;-80
2021/12/13 07:05:57;;;;;;;5.63;3.40;;;2.60;99.90;;;;;;5139799;27;20464;-80
2021/12/13 07:08:31;;;;;;;6.67;3.20;;;2.60;99.90;;;;;;5139832;27;20447;-81
2021/12/13 07:11:02;;;;;;;4.83;3.70;;;2.60;99.90;;;;;;5139415;27;20411;-79
2021/12/13 07:13:50;;;;;;;7.63;3.37;;;2.70;99.90;;;;;;5142415;27;20414;-80
2021/12/13 07:16:32;;;;;;;13.83;4.47;;;2.70;99.90;;;;;;5140636;27;20392;-80
2021/12/13 07:19:25;;;;;;;7.47;4.00;;;2.70;99.90;;;;;;5138599;27;20465;-80
2021/12/13 07:22:00;;;;;;;7.60;4.07;;;2.70;99.90;;;;;;5129201;27;20893;-80
2021/12/13 07:24:42;;;;;;;4.90;3.73;;;2.70;99.90;;;;;;5140809;27;20460;-80
2021/12/13 07:27:27;;;;;;;6.33;4.73;;;2.80;99.90;;;;;;5139525;27;20847;-79
2021/12/13 07:30:04;;;;;;;6.57;3.80;;;2.80;99.90;;;;;;5140324;27;20438;-79
2021/12/13 07:32:42;;;;;;;4.97;4.13;;;2.80;99.90;;;;;;5139611;27;20415;-80
2021/12/13 07:35:07;;;;;;;4.37;3.97;;;2.80;99.90;;;;;;5140524;27;20467;-80
2021/12/13 07:37:36;;;;;;;4.93;4.30;;;2.80;99.90;;;;;;5139201;27;20473;-80
2021/12/13 07:40:23;;;;;;;5.97;3.77;;;3.00;99.90;;;;;;5139313;27;20174;-80
2021/12/13 07:43:21;;;;;;;4.33;3.80;;;2.90;99.90;;;;;;5139099;27;20405;-80
2021/12/13 07:45:55;;;;;;;7.77;4.63;;;3.00;99.90;;;;;;5136300;27;20440;-80
2021/12/13 07:48:31;;;;;;;8.03;6.73;;;3.00;99.90;;;;;;5139416;27;20427;-80
2021/12/13 07:51:25;;;;;;;8.00;6.53;;;3.00;99.90;;;;;;5140156;27;20408;-80
2021/12/13 07:53:57;;;;;;;9.10;6.23;;;3.00;99.90;;;;;;5129557;27;20412;-80
2021/12/13 07:56:43;;;;;;;7.87;6.17;;;3.00;99.90;;;;;;5140869;27;20409;-80
2021/12/13 07:59:24;;;;;;;8.10;6.27;;;3.10;99.90;;;;;;5140899;27;20419;-80
2021/12/13 08:01:59;;;;;;;11.30;5.87;;;3.10;99.90;;;;;;5139690;27;20420;-80
2021/12/13 08:04:27;;;;;;;8.17;6.80;;;3.20;99.90;;;;;;5141387;27;20440;-80
2021/12/13 08:07:06;;;;;;;10.43;7.00;;;3.20;99.90;;;;;;5140497;27;20537;-79
2021/12/13 08:09:39;;;;;;;7.07;5.80;;;3.20;99.90;;;;;;5139927;27;20412;-80
2021/12/13 08:12:26;;;;;;;8.57;7.10;;;3.20;99.90;;;;;;5140418;28;20753;-79
2021/12/13 08:15:05;;;;;;;8.57;6.60;;;3.20;99.90;;;;;;5140905;28;20434;-79
2021/12/13 08:18:05;;;;;;;10.07;6.43;;;3.40;99.90;;;;;;5142526;28;20412;-80
2021/12/13 08:20:35;;;;;;;5.30;4.77;;;3.30;99.90;;;;;;5121665;28;20441;-79
2021/12/13 08:23:02;;;;;;;7.47;6.30;;;3.40;99.90;;;;;;5149887;28;20423;-79
2021/12/13 08:25:33;;;;;;;6.90;6.10;;;3.30;99.90;;;;;;5154275;27;20432;-79
2021/12/13 08:28:09;;;;;;;8.27;6.23;;;3.40;99.90;;;;;;5148586;28;20413;-80
2021/12/13 08:30:47;;;;;;;8.93;7.90;;;3.40;99.90;;;;;;5140146;28;20392;-80
2021/12/13 08:33:19;;;;;;;10.30;8.20;;;3.50;99.90;;;;;;5138876;28;20416;-80
2021/12/13 08:36:09;;;;;;;10.40;8.63;;;3.50;99.90;;;;;;5139240;28;20978;-79
2021/12/13 08:38:41;;;;;;;12.00;10.70;;;3.50;99.90;;;;;;5139215;28;20404;-79
2021/12/13 08:41:15;;;;;;;14.57;10.07;;;3.60;99.90;;;;;;5139868;28;20869;-79
2021/12/13 08:43:51;;;;;;;13.80;9.53;;;3.60;99.90;;;;;;5139304;28;20412;-80
2021/12/13 08:46:26;;;;;;;17.17;9.73;;;3.70;99.90;;;;;;5140126;28;20427;-80
2021/12/13 08:48:52;;;;;;;26.50;12.07;;;3.70;99.90;;;;;;5141490;27;20388;-81
2021/12/13 08:51:22;;;;;;;17.23;10.90;;;3.80;99.90;;;;;;5140429;28;20544;-80
2021/12/13 08:54:09;;;;;;;13.03;9.43;;;3.80;99.90;;;;;;5139283;28;20166;-80
2021/12/13 08:56:44;;;;;;;13.30;8.67;;;3.80;99.90;;;;;;5139720;27;20850;-80
2021/12/13 08:59:26;;;;;;;8.27;7.03;;;3.90;99.90;;;;;;5138944;28;20426;-80
2021/12/13 09:02:05;;;;;;;11.10;8.13;;;4.00;99.90;;;;;;5138651;28;20828;-80
2021/12/13 09:04:35;;;;;;;17.63;10.43;;;4.10;99.90;;;;;;5137567;28;20524;-79
2021/12/13 09:07:06;;;;;;;24.17;12.57;;;4.10;99.90;;;;;;5139293;27;20974;-80
2021/12/13 09:09:33;;;;;;;25.77;12.20;;;4.10;99.90;;;;;;5142239;27;20400;-80
2021/12/13 09:12:03;;;;;;;17.20;9.43;;;4.10;99.90;;;;;;5143320;27;20420;-80
2021/12/13 09:14:35;;;;;;;18.27;8.63;;;4.20;99.90;;;;;;5143766;27;20455;-80
2021/12/13 09:17:21;;;;;;;15.93;8.30;;;4.30;99.90;;;;;;5141737;27;20419;-80
2021/12/13 09:20:11;;;;;;;21.13;8.93;;;4.40;99.90;;;;;;5141461;27;20515;-80
2021/12/13 09:22:41;;;;;;;13.47;7.90;;;4.50;99.90;;;;;;5141465;27;20495;-80
2021/12/13 09:25:26;;;;;;;19.77;9.23;;;4.60;99.90;;;;;;5140016;27;20496;-79
2021/12/13 09:28:03;;;;;;;16.57;9.07;;;4.80;99.90;;;;;;5140021;27;20516;-80
2021/12/13 09:31:11;;;;;;;14.10;8.27;;;4.80;99.90;;;;;;5139738;27;20818;-80
2021/12/13 09:33:45;;;;;;;20.80;8.17;;;4.90;99.90;;;;;;5059269;28;20408;-80
2021/12/13 09:36:13;;;;;;;13.73;8.70;;;4.90;99.90;;;;;;5078185;28;20469;-80
2021/12/13 09:38:50;;;;;;;23.97;10.60;;;5.00;99.90;;;;;;5115900;27;20905;-80
2021/12/13 09:41:19;;;;;;;19.27;9.70;;;5.00;99.90;;;;;;5143217;27;20425;-80
2021/12/13 09:44:10;;;;;;;16.03;8.63;;;5.20;99.90;;;;;;5141613;27;20419;-80
2021/12/13 09:46:41;;;;;;;11.00;7.33;;;5.10;99.90;;;;;;5143446;27;20794;-80
2021/12/13 09:49:23;;;;;;;12.43;7.57;;;5.10;99.90;;;;;;5143014;27;20435;-80
2021/12/13 09:51:57;;;;;;;8.33;5.67;;;5.10;99.90;;;;;;5142464;27;20162;-80
2021/12/13 09:54:27;;;;;;;12.20;6.43;;;5.10;99.90;;;;;;5143864;27;20454;-80
2021/12/13 09:56:58;;;;;;;14.93;6.67;;;5.00;99.90;;;;;;5141709;27;20408;-80
2021/12/13 09:59:33;;;;;;;8.10;6.10;;;5.00;99.90;;;;;;5142052;27;20910;-80
2021/12/13 10:02:06;;;;;;;7.93;5.80;;;5.10;99.90;;;;;;5142037;27;20821;-80
2021/12/13 10:04:32;;;;;;;14.23;7.17;;;5.20;99.90;;;;;;5141845;27;20194;-80
2021/12/13 10:07:14;;;;;;;11.30;6.00;;;5.40;99.90;;;;;;5141471;27;20595;-81
2021/12/13 10:09:48;;;;;;;9.30;6.17;;;5.50;99.90;;;;;;5141891;27;20167;-80
2021/12/13 10:12:22;;;;;;;15.40;5.60;;;5.70;99.90;;;;;;5143121;27;20160;-80
2021/12/13 10:14:53;;;;;;;7.20;4.90;;;5.70;99.90;;;;;;5142761;27;20435;-80
2021/12/13 10:17:24;;;;;;;7.87;5.43;;;5.60;99.90;;;;;;5144660;27;20259;-80
2021/12/13 10:19:57;;;;;;;7.93;6.13;;;5.60;99.90;;;;;;5153716;27;20200;-80
2021/12/13 10:22:27;;;;;;;10.40;7.03;;;5.60;99.90;;;;;;5157739;27;20179;-79
2021/12/13 10:24:57;;;;;;;8.83;6.17;;;5.60;99.90;;;;;;5158135;27;20429;-80
2021/12/13 10:27:24;;;;;;;7.80;6.33;;;5.70;99.90;;;;;;5153413;27;20202;-80
2021/12/13 10:29:57;;;;;;;10.77;6.70;;;5.80;99.90;;;;;;5142948;27;20423;-80
2021/12/13 10:32:27;;;;;;;4.70;4.20;;;6.10;99.90;;;;;;5142712;27;20555;-80
2021/12/13 10:35:03;;;;;;;5.27;4.67;;;6.40;99.90;;;;;;5143068;27;20554;-80
2021/12/13 10:37:39;;;;;;;5.87;4.40;;;6.60;99.90;;;;;;5144357;27;20553;-80
2021/12/13 10:40:24;;;;;;;7.17;4.43;;;6.90;99.90;;;;;;5142976;27;20168;-81
2021/12/13 10:42:58;;;;;;;6.30;4.00;;;8.10;99.90;;;;;;5148380;27;20209;-79
2021/12/13 10:45:39;;;;;;;4.27;3.87;;;8.10;99.90;;;;;;5141999;27;20190;-81
2021/12/13 10:48:07;;;;;;;3.90;3.50;;;9.40;99.90;;;;;;5141029;27;20170;-80
2021/12/13 10:50:35;;;;;;;3.63;3.00;;;10.50;99.90;;;;;;5140474;27;20543;-80
2021/12/13 10:53:03;;;;;;;4.20;3.70;;;10.70;99.90;;;;;;5140662;27;20257;-80
2021/12/13 10:55:35;;;;;;;4.23;3.23;;;10.50;99.90;;;;;;5142035;27;20191;-80
2021/12/13 10:58:03;;;;;;;5.07;3.13;;;10.50;99.90;;;;;;5140889;27;20167;-80
2021/12/13 11:00:45;;;;;;;4.30;3.03;;;10.70;99.90;;;;;;5141286;27;20648;-81
2021/12/13 11:03:15;;;;;;;6.53;4.37;;;10.10;99.90;;;;;;5141187;27;20215;-81
2021/12/13 11:05:42;;;;;;;5.67;4.40;;;9.60;99.90;;;;;;5142061;27;20211;-80
2021/12/13 11:08:11;;;;;;;3.67;3.13;;;9.00;99.90;;;;;;5142474;27;20284;-80
2021/12/13 11:10:43;;;;;;;3.33;3.03;;;8.80;99.90;;;;;;5141003;27;20175;-80
2021/12/13 11:13:08;;;;;;;6.13;3.13;;;8.60;99.90;;;;;;5142557;27;20172;-81
2021/12/13 11:15:39;;;;;;;2.93;2.30;;;8.40;99.90;;;;;;5141839;27;20195;-80
2021/12/13 11:18:15;;;;;;;6.30;2.50;;;8.30;99.90;;;;;;5143033;27;20219;-81
2021/12/13 11:20:50;;;;;;;6.73;2.70;;;8.70;99.90;;;;;;5144979;27;20192;-81
2021/12/13 11:23:19;;;;;;;4.00;2.93;;;9.30;99.90;;;;;;5144816;27;20278;-80
2021/12/13 11:25:54;;;;;;;4.30;3.10;;;9.90;99.90;;;;;;5145039;27;20251;-81
2021/12/13 11:28:20;;;;;;;4.57;3.20;;;10.60;99.90;;;;;;5144084;27;20616;-81
2021/12/13 11:30:48;;;;;;;3.60;3.30;;;11.30;99.90;;;;;;5144376;27;20693;-80
2021/12/13 11:33:22;;;;;;;7.57;3.80;;;11.80;99.90;;;;;;5141572;27;20238;-81
2021/12/13 11:36:06;;;;;;;2.80;2.60;;;12.40;99.90;;;;;;5142469;27;20210;-81
2021/12/13 11:38:56;;;;;;;4.23;3.30;;;11.90;99.90;;;;;;5143512;27;20172;-81
2021/12/13 11:41:47;;;;;;;4.07;3.40;;;11.50;99.90;;;;;;5143981;27;20159;-80
2021/12/13 11:44:50;;;;;;;3.60;3.30;;;11.10;99.90;;;;;;5142860;27;20183;-81
2021/12/13 11:47:44;;;;;;;5.00;3.67;;;10.30;99.90;;;;;;5143930;27;20219;-82
2021/12/13 11:50:44;;;;;;;3.93;3.53;;;10.00;99.90;;;;;;5142528;27;20536;-80
2021/12/13 11:53:47;;;;;;;7.37;4.57;;;9.90;99.90;;;;;;5143397;27;20660;-80
2021/12/13 11:56:53;;;;;;;6.07;3.70;;;9.90;99.90;;;;;;5142773;27;20195;-80
2021/12/13 11:59:37;;;;;;;7.37;3.87;;;10.30;99.90;;;;;;5142743;27;20159;-80
2021/12/13 12:02:29;;;;;;;4.53;3.93;;;10.20;99.90;;;;;;5142933;27;20159;-80
2021/12/13 12:05:44;;;;;;;8.00;4.43;;;10.00;99.90;;;;;;5141782;27;20198;-80
2021/12/13 12:08:23;;;;;;;5.00;4.50;;;9.70;99.90;;;;;;5100696;28;20553;-80
2021/12/13 12:11:17;;;;;;;7.53;4.73;;;9.20;99.90;;;;;;5142633;27;20266;-80
2021/12/13 12:14:06;;;;;;;10.93;6.17;;;8.80;99.90;;;;;;5143536;27;20540;-80
2021/12/13 12:16:39;;;;;;;5.53;4.43;;;8.40;99.90;;;;;;5142116;27;20513;-80
2021/12/13 12:19:08;;;;;;;6.50;4.60;;;8.10;99.90;;;;;;5142726;28;20673;-80
2021/12/13 12:21:39;;;;;;;6.20;4.60;;;7.90;99.90;;;;;;5142590;28;20178;-80
2021/12/13 12:24:07;;;;;;;4.93;3.90;;;7.60;99.90;;;;;;5144633;27;20175;-79
2021/12/13 12:26:33;;;;;;;5.00;4.10;;;7.40;99.90;;;;;;5152341;28;20619;-79
2021/12/13 12:29:03;;;;;;;3.47;2.77;;;7.10;99.90;;;;;;5155413;28;20171;-79
2021/12/13 12:31:35;;;;;;;7.33;4.47;;;6.90;99.90;;;;;;5154624;27;20185;-79
2021/12/13 12:34:03;;;;;;;8.03;4.23;;;6.70;99.90;;;;;;5143692;28;20232;-79
2021/12/13 12:36:43;;;;;;;4.53;3.83;;;6.70;99.90;;;;;;5139183;27;20203;-80
2021/12/13 12:39:37;;;;;;;8.33;4.00;;;6.70;99.90;;;;;;5137153;28;20173;-79
2021/12/13 12:42:29;;;;;;;5.07;3.33;;;6.90;99.90;;;;;;5136651;27;20609;-79
2021/12/13 12:44:55;;;;;;;10.87;3.90;;;6.80;99.90;;;;;;5138727;27;20209;-79
2021/12/13 12:47:44;;;;;;;6.10;3.93;;;6.70;99.90;;;;;;5139938;27;20190;-79
2021/12/13 12:50:20;;;;;;;7.73;4.33;;;6.50;99.90;;;;;;5106278;27;20273;-80
2021/12/13 12:53:01;;;;;;;9.00;5.23;;;6.60;99.90;;;;;;5148527;27;20163;-79
2021/12/13 12:55:49;;;;;;;6.77;4.57;;;6.80;99.90;;;;;;5147662;27;20228;-79
2021/12/13 12:58:19;;;;;;;7.87;5.00;;;6.90;99.90;;;;;;5147600;27;20194;-79
2021/12/13 13:00:46;;;;;;;9.60;5.23;;;7.00;99.90;;;;;;5149253;27;20241;-79
2021/12/13 13:03:28;;;;;;;9.47;5.03;;;6.80;99.90;;;;;;5146301;27;20182;-80
2021/12/13 13:06:10;;;;;;;9.60;5.17;;;6.80;99.90;;;;;;5145425;27;20213;-79
2021/12/13 13:08:39;;;;;;;7.43;4.77;;;6.70;99.90;;;;;;5143883;27;20163;-79
2021/12/13 13:11:35;;;;;;;13.87;4.90;;;6.60;99.90;;;;;;5145171;27;20171;-79
2021/12/13 13:14:13;;;;;;;6.93;4.30;;;6.50;99.90;;;;;;5144429;27;20195;-79
2021/12/13 13:16:48;;;;;;;10.70;5.10;;;6.40;99.90;;;;;;5143717;27;20200;-79
2021/12/13 13:19:45;;;;;;;11.23;4.33;;;6.30;99.90;;;;;;5145224;27;20200;-79
2021/12/13 13:22:26;;;;;;;31.37;5.33;;;6.00;99.90;;;;;;5132731;27;20263;-79
2021/12/13 13:24:55;;;;;;;36.57;4.80;;;5.60;99.90;;;;;;5143309;27;20206;-79
2021/12/13 13:27:24;;;;;;;11.13;4.93;;;5.60;99.90;;;;;;5143806;27;20297;-79
2021/12/13 13:29:51;;;;;;;37.67;5.20;;;5.60;99.90;;;;;;5145742;27;20190;-79
2021/12/13 13:32:17;;;;;;;36.73;5.17;;;5.60;99.90;;;;;;5144144;27;20182;-79
2021/12/13 13:34:46;;;;;;;11.77;4.70;;;5.60;99.90;;;;;;5143639;27;20194;-79
2021/12/13 13:37:17;;;;;;;8.03;4.70;;;5.40;99.90;;;;;;5145018;27;20175;-79
2021/12/13 13:39:46;;;;;;;15.70;4.87;;;5.40;99.90;;;;;;5143543;27;20180;-79
2021/12/13 13:42:38;;;;;;;10.53;4.60;;;5.40;99.90;;;;;;5143309;27;20569;-79
2021/12/13 13:45:10;;;;;;;38.73;5.17;;;5.40;99.90;;;;;;5143342;27;20519;-79
2021/12/13 13:47:41;;;;;;;12.37;4.43;;;5.40;99.90;;;;;;5144754;27;20186;-79